Delray Beach, FL

10:48 AM EDT on October 21, 2014 (GMT -0400)
Fort Lauderdale Executive | Change Station
CLOSE
Current Station
Airport
Location: Fort Lauderdale,
Elevation: 13 ft
Nearby Weather Stations

Elev 13 ft 26.20 °N, 80.18 °W | Updated 55 minutes ago

Overcast
Overcast
79 °F
Feels Like 79 °F
N
4
Wind Variable Wind from ESE

Today
High -- | Low -- °F
--% Chance of Precip.
Yesterday
High -- | Low -- °F
Precip. -- in
7:22 AM 6:46 PM
Waning Crescent, 5% visible
Pressure 29.98 in
Visibility 10.0 miles
Clouds Scattered Clouds 5000 ft
Overcast 10000 ft
Dew Point 72 °F
Humidity 79%
Rainfall 0.00 in
Snow Depth Not available.
UV 1 out of 12
Pollen 3.20 out of 12
Ozone Good
PM2.5 Good
Flu Activity Local Activity
METAR KFXE 211353Z 12003KT 10SM SCT050 OVC100 26/22 A2997 RMK AO2 SLP151 T02610222

More Conditions Fewer Conditions

Pressure 29.98 in
Visibility 10.0 miles
Clouds Scattered Clouds 5000 ft
Overcast 10000 ft
Dew Point 72 °F
Humidity 79%
Rainfall 0.00 in
Snow Depth Not available.
UV 1 out of 12
Pollen 3.20 out of 12
Ozone Good
PM2.5 Good
Flu Activity Local Activity
METAR KFXE 211353Z 12003KT 10SM SCT050 OVC100 26/22 A2997 RMK AO2 SLP151 T02610222

More Conditions Fewer Conditions

Nowcast | as of 9:54 am EDT on October 21, 2014

Through this morning...isolated showers and even a thunderstorm will continue to develop over the east coastal areas of South Florida and move to the north northeast at 5 to 10 mph into the Atlantic waters of South Florida. Any storms that do develop will be capable of producing lightning strikes, gusty winds up to 30 mph, and locally heavy rainfall. If you see lightning or hear thunder move inside until the storms have passed by. Mariners can also expect higher seas in and near the showers and thunderstorms.

×

10-Day Weather Forecast

Almanac

Astronomy

Oct. 21, 2014 Rise Set
Actual Time 7:22 AM EDT 6:46 PM EDT
Civil Twilight 6:59 AM EDT 7:10 PM EDT
Nautical Twilight 6:32 AM EDT 7:37 PM EDT
Astronomical Twilight 6:05 AM EDT 8:04 PM EDT
Moon 5:18 AM EDT 5:29 PM EDT
Length of Visible Light 12h 10m
Length of Day
11h 23m
Tomorrow will be 1m 28s shorter.
Waning Crescent, 5% of the Moon is Illuminated
Today
Waning Crescent
Oct 23
New
Oct 30
First Quarter
Nov 6
Full
Nov 14
Last Quarter

Today's Extremes

State Highs State Lows

Community

WunderPhotos

Upload Photos

1,763,678 photos uploaded!

Nearby

Air Quality

  Air Quality AQ Index Pollutant
Yesterday Good
PM2.5
Yesterday Good
OZONE
Current Good
PM2.5
Current Good
OZONE
Tuesday Good
OZONE
Tuesday Good
PM2.5
Wednesday Good
OZONE
Wednesday Good
PM2.5

Snow Depth

Station Depth Elevation
No new snow has been reported.

Earthquake Activity

City Distance Mag. Time & Date
No recent earthquake activity has been reported nearby.
Minimum magnitude displayed is 2.5.

Coastal Water Temperatures

Place Temperature
Lake Worth, FL 82.9 °F
Virginia Key, FL 81.0 °F

Nearby Weather Stations